createdAt,value
2019-02-25T00:01:03.101Z,9.30
2019-02-25T00:03:30.660Z,8.23
2019-02-25T00:05:58.219Z,9.90
2019-02-25T00:08:25.451Z,6.83
2019-02-25T00:10:53.031Z,7.70
2019-02-25T00:13:20.263Z,10.97
2019-02-25T00:15:47.507Z,8.43
2019-02-25T00:18:14.729Z,8.47
2019-02-25T00:20:41.954Z,9.87
2019-02-25T00:23:09.492Z,7.17
2019-02-25T00:25:37.052Z,9.53
2019-02-25T00:28:04.302Z,7.50
2019-02-25T00:30:31.531Z,8.13
2019-02-25T00:32:59.004Z,9.77
2019-02-25T00:35:26.571Z,7.57
2019-02-25T00:37:54.316Z,9.30
2019-02-25T00:40:21.549Z,8.57
2019-02-25T00:42:49.200Z,10.60
2019-02-25T00:45:16.476Z,9.40
2019-02-25T00:47:44.059Z,9.50
2019-02-25T00:50:11.875Z,7.43
2019-02-25T00:52:39.193Z,8.20
2019-02-25T00:55:06.490Z,9.17
2019-02-25T00:57:33.752Z,6.97
2019-02-25T01:00:00.883Z,6.70
2019-02-25T01:02:28.140Z,8.87
2019-02-25T01:04:55.446Z,8.03
2019-02-25T01:07:23.113Z,6.63
2019-02-25T01:09:50.645Z,6.80
2019-02-25T01:12:18.211Z,7.83
2019-02-25T01:14:45.458Z,7.90
2019-02-25T01:17:14.765Z,7.30
2019-02-25T01:19:42.331Z,7.03
2019-02-25T01:22:09.886Z,7.70
2019-02-25T01:24:37.120Z,8.20
2019-02-25T01:27:04.692Z,6.83
2019-02-25T01:29:31.942Z,8.47
2019-02-25T01:31:59.264Z,7.53
2019-02-25T01:34:26.862Z,7.40
2019-02-25T01:36:54.416Z,7.97
2019-02-25T01:39:21.649Z,6.43
2019-02-25T01:41:48.880Z,6.40
2019-02-25T01:44:16.160Z,7.13
2019-02-25T01:46:43.731Z,6.70
2019-02-25T01:49:11.004Z,7.40
2019-02-25T01:51:38.220Z,7.67
2019-02-25T01:54:05.450Z,8.03
2019-02-25T01:56:32.699Z,6.93
2019-02-25T01:58:59.920Z,7.07
2019-02-25T02:01:27.131Z,8.33
2019-02-25T02:03:54.347Z,6.90
2019-02-25T02:06:21.848Z,7.20
2019-02-25T02:08:49.064Z,7.27
2019-02-25T02:11:16.304Z,7.40
2019-02-25T02:13:43.530Z,7.13
2019-02-25T02:16:10.776Z,6.40
2019-02-25T02:18:38.307Z,6.70
2019-02-25T02:21:05.975Z,7.23
2019-02-25T02:23:33.339Z,6.93
2019-02-25T02:26:00.884Z,6.60
2019-02-25T02:28:28.443Z,7.63
2019-02-25T02:30:55.662Z,9.27
2019-02-25T02:33:23.254Z,7.30
2019-02-25T02:35:50.811Z,9.33
2019-02-25T02:38:18.027Z,6.90
2019-02-25T02:40:45.519Z,7.47
2019-02-25T02:43:13.084Z,7.77
2019-02-25T02:46:10.869Z,7.20
2019-02-25T02:48:50.816Z,6.80
2019-02-25T02:51:18.764Z,8.13
2019-02-25T02:53:46.008Z,8.00
2019-02-25T02:56:13.247Z,8.10
2019-02-25T02:58:40.508Z,7.17
2019-02-25T03:01:07.723Z,7.20
2019-02-25T03:03:35.256Z,9.33
2019-02-25T03:06:02.811Z,5.13
2019-02-25T03:08:30.024Z,8.97
2019-02-25T03:10:57.267Z,8.00
2019-02-25T03:13:24.489Z,7.83
2019-02-25T03:15:51.704Z,6.80
2019-02-25T03:18:18.923Z,8.27
2019-02-25T03:20:46.147Z,7.47
2019-02-25T03:23:13.371Z,8.43
2019-02-25T03:25:40.716Z,8.67
2019-02-25T03:28:08.428Z,8.97
2019-02-25T03:30:35.660Z,6.37
2019-02-25T03:33:03.208Z,6.47
2019-02-25T03:35:30.516Z,11.17
2019-02-25T03:37:58.212Z,8.97
2019-02-25T03:40:25.649Z,8.13
2019-02-25T03:42:52.878Z,6.27
2019-02-25T03:45:20.093Z,6.63
2019-02-25T03:47:47.405Z,11.10
2019-02-25T03:50:14.713Z,8.33
2019-02-25T03:52:42.023Z,7.37
2019-02-25T03:55:11.833Z,7.63
2019-02-25T03:57:39.144Z,7.10
2019-02-25T04:00:08.852Z,7.67
2019-02-25T04:02:36.750Z,9.40
2019-02-25T04:05:05.005Z,8.10
2019-02-25T04:07:32.508Z,7.33
2019-02-25T04:09:59.747Z,6.63
2019-02-25T04:12:26.864Z,5.73
2019-02-25T04:14:54.109Z,8.33
2019-02-25T04:17:22.004Z,7.23
2019-02-25T04:19:49.666Z,6.87
2019-02-25T04:22:16.896Z,8.87
2019-02-25T04:24:44.140Z,8.37
2019-02-25T04:27:11.721Z,7.50
2019-02-25T04:29:38.946Z,8.37
2019-02-25T04:32:06.361Z,7.57
2019-02-25T04:34:33.575Z,6.20
2019-02-25T04:37:00.796Z,8.93
2019-02-25T04:39:28.284Z,7.87
2019-02-25T04:41:55.849Z,6.87
2019-02-25T04:44:23.064Z,7.47
2019-02-25T04:46:50.290Z,8.00
2019-02-25T04:49:17.501Z,6.67
2019-02-25T04:51:44.805Z,7.20
2019-02-25T04:54:12.016Z,6.10
2019-02-25T04:56:39.255Z,7.40
2019-02-25T04:59:06.577Z,5.63
2019-02-25T05:01:33.793Z,5.93
2019-02-25T05:04:01.020Z,8.83
2019-02-25T05:06:28.237Z,8.47
2019-02-25T05:08:55.552Z,6.43
2019-02-25T05:11:27.984Z,6.07
2019-02-25T05:13:55.204Z,7.40
2019-02-25T05:16:22.420Z,8.97
2019-02-25T05:18:50.043Z,7.60
2019-02-25T05:21:17.609Z,7.27
2019-02-25T05:23:45.065Z,9.03
2019-02-25T05:26:12.625Z,10.53
2019-02-25T05:28:40.169Z,8.57
2019-02-25T05:31:07.740Z,10.67
2019-02-25T05:33:34.983Z,11.47
2019-02-25T05:36:02.208Z,9.90
2019-02-25T05:38:29.433Z,9.27
2019-02-25T05:40:56.735Z,8.90
2019-02-25T05:43:24.309Z,8.63
2019-02-25T05:45:51.528Z,10.60
2019-02-25T05:48:18.750Z,8.90
2019-02-25T05:50:45.972Z,9.60
2019-02-25T05:53:13.210Z,8.43
2019-02-25T05:55:40.513Z,9.67
2019-02-25T05:58:07.757Z,7.43
2019-02-25T06:00:35.123Z,11.10
2019-02-25T06:03:02.640Z,9.97
2019-02-25T06:05:29.876Z,7.37
2019-02-25T06:07:57.094Z,8.90
2019-02-25T06:10:24.312Z,10.33
2019-02-25T06:12:51.528Z,9.67
2019-02-25T06:15:18.760Z,10.17
2019-02-25T06:17:46.248Z,9.33
2019-02-25T06:20:13.793Z,9.70
2019-02-25T06:22:41.017Z,10.60
2019-02-25T06:25:08.817Z,11.97
2019-02-25T06:27:36.036Z,12.03
2019-02-25T06:30:05.038Z,13.33
2019-02-25T06:32:32.624Z,17.03
2019-02-25T06:34:59.868Z,13.53
2019-02-25T06:37:27.116Z,13.30
2019-02-25T06:39:54.682Z,11.07
2019-02-25T06:42:21.904Z,8.10
2019-02-25T06:44:49.121Z,7.93
2019-02-25T06:47:16.640Z,10.00
2019-02-25T06:49:43.860Z,11.73
2019-02-25T06:52:12.914Z,10.77
2019-02-25T06:54:40.593Z,11.50
2019-02-25T06:57:07.919Z,9.43
2019-02-25T06:59:35.182Z,12.47
2019-02-25T07:02:02.429Z,8.90
2019-02-25T07:04:34.818Z,9.97
2019-02-25T07:07:08.197Z,8.63
2019-02-25T07:09:55.136Z,6.57
2019-02-25T07:12:27.240Z,10.83
2019-02-25T07:15:25.797Z,7.47
2019-02-25T07:18:08.837Z,9.60
2019-02-25T07:20:58.370Z,9.43
2019-02-25T07:23:38.387Z,8.83
2019-02-25T07:26:14.932Z,25.40
2019-02-25T07:29:14.463Z,73.53
2019-02-25T07:31:55.462Z,55.30
2019-02-25T07:34:46.031Z,55.47
2019-02-25T07:37:32.804Z,22.63
2019-02-25T07:40:19.932Z,13.33
2019-02-25T07:42:57.232Z,17.03
2019-02-25T07:45:33.573Z,11.97
2019-02-25T07:48:10.535Z,14.87
2019-02-25T07:50:56.381Z,14.97
2019-02-25T07:53:30.456Z,16.47
2019-02-25T07:56:10.452Z,17.90
2019-02-25T07:58:57.215Z,15.17
2019-02-25T08:01:31.758Z,19.07
2019-02-25T08:04:06.044Z,17.33
2019-02-25T08:06:52.188Z,15.97
2019-02-25T08:09:45.552Z,13.67
2019-02-25T08:12:21.900Z,11.33
2019-02-25T08:15:23.494Z,11.10
2019-02-25T08:18:28.276Z,12.80
2019-02-25T08:21:22.476Z,16.80
2019-02-25T08:24:08.276Z,12.03
2019-02-25T08:26:58.264Z,12.83
2019-02-25T08:30:03.510Z,11.37
2019-02-25T08:32:56.575Z,17.47
2019-02-25T08:36:18.492Z,13.27
2019-02-25T08:39:11.651Z,10.37
2019-02-25T08:41:50.479Z,12.30
2019-02-25T08:44:27.916Z,11.57
2019-02-25T08:47:17.304Z,10.27
2019-02-25T08:49:50.064Z,8.73
2019-02-25T08:52:17.675Z,9.13
2019-02-25T08:54:44.898Z,9.10
2019-02-25T08:57:12.231Z,8.97
2019-02-25T08:59:39.833Z,6.70
2019-02-25T09:02:07.072Z,6.73
2019-02-25T09:04:34.288Z,6.73
2019-02-25T09:07:01.552Z,7.03
2019-02-25T09:09:28.769Z,7.27
2019-02-25T09:11:55.988Z,7.90
2019-02-25T09:14:23.208Z,6.80
2019-02-25T09:16:50.429Z,6.00
2019-02-25T09:19:17.955Z,6.50
2019-02-25T09:21:45.521Z,6.17
2019-02-25T09:24:12.740Z,4.60
2019-02-25T09:26:39.964Z,4.90
2019-02-25T09:29:07.192Z,5.03
2019-02-25T09:31:34.403Z,4.40
2019-02-25T09:34:02.179Z,4.73
2019-02-25T09:36:29.475Z,3.20
2019-02-25T09:38:56.893Z,5.00
2019-02-25T09:41:30.017Z,3.97
2019-02-25T09:43:53.647Z,3.50
2019-02-25T09:46:20.868Z,2.40
2019-02-25T09:48:48.129Z,3.03
2019-02-25T09:51:15.344Z,4.23
2019-02-25T09:53:42.589Z,4.23
2019-02-25T09:56:10.216Z,3.83
2019-02-25T09:58:37.455Z,2.73
2019-02-25T10:01:04.671Z,7.77
2019-02-25T10:03:32.175Z,5.20
2019-02-25T10:05:59.415Z,4.73
2019-02-25T10:08:26.744Z,4.23
2019-02-25T10:10:53.964Z,3.53
2019-02-25T10:13:21.221Z,4.43
2019-02-25T10:15:48.456Z,3.60
2019-02-25T10:18:15.996Z,3.40
2019-02-25T10:20:43.562Z,3.37
2019-02-25T10:23:10.811Z,4.23
2019-02-25T10:25:38.368Z,4.00
2019-02-25T10:28:05.683Z,4.57
2019-02-25T10:30:32.904Z,3.90
2019-02-25T10:33:00.888Z,4.07
2019-02-25T10:35:28.315Z,4.23
2019-02-25T10:37:55.560Z,4.07
2019-02-25T10:40:25.402Z,4.37
2019-02-25T10:42:51.921Z,4.93
2019-02-25T10:45:19.188Z,3.17
2019-02-25T10:47:47.441Z,3.27
2019-02-25T10:50:15.669Z,2.93
2019-02-25T10:52:44.542Z,9.47
2019-02-25T10:55:16.074Z,5.50
2019-02-25T10:57:43.385Z,5.00
2019-02-25T11:00:13.826Z,5.07
2019-02-25T11:02:44.237Z,2.40
2019-02-25T11:05:10.401Z,4.30
2019-02-25T11:07:39.680Z,4.73
2019-02-25T11:10:17.742Z,3.13
2019-02-25T11:12:45.120Z,3.87
2019-02-25T11:15:13.905Z,5.60
2019-02-25T11:17:41.975Z,4.37
2019-02-25T11:20:09.470Z,4.80
2019-02-25T11:22:38.035Z,3.80
2019-02-25T11:25:06.919Z,3.07
2019-02-25T11:27:35.853Z,4.40
2019-02-25T11:30:04.760Z,5.43
2019-02-25T11:32:32.127Z,4.03
2019-02-25T11:35:01.108Z,5.07
2019-02-25T11:37:28.807Z,5.20
2019-02-25T11:39:57.251Z,7.50
2019-02-25T11:42:25.239Z,5.63
2019-02-25T11:44:54.091Z,5.67
2019-02-25T11:47:21.688Z,10.47
2019-02-25T11:49:50.785Z,6.07
2019-02-25T11:52:18.563Z,4.00
2019-02-25T11:54:45.784Z,4.07
2019-02-25T11:57:13.683Z,4.53
2019-02-25T11:59:41.239Z,4.37
2019-02-25T12:02:08.800Z,4.40
2019-02-25T12:04:36.047Z,5.23
2019-02-25T12:07:03.923Z,2.17
2019-02-25T12:09:31.161Z,5.73
2019-02-25T12:11:58.376Z,5.27
2019-02-25T12:14:25.615Z,2.27
2019-02-25T12:16:52.913Z,4.50
2019-02-25T12:19:20.492Z,2.10
2019-02-25T12:21:47.695Z,3.00
2019-02-25T12:24:15.298Z,3.67
2019-02-25T12:26:42.855Z,5.10
2019-02-25T12:29:11.060Z,3.03
2019-02-25T12:31:38.532Z,2.70
2019-02-25T12:34:05.772Z,4.63
2019-02-25T12:36:33.302Z,3.83
2019-02-25T12:39:00.974Z,7.97
2019-02-25T12:41:28.515Z,5.13
2019-02-25T12:43:55.760Z,3.47
2019-02-25T12:46:23.344Z,3.30
2019-02-25T12:48:50.568Z,4.50
2019-02-25T12:51:18.139Z,3.43
2019-02-25T12:53:45.452Z,3.73
2019-02-25T12:56:12.948Z,3.83
2019-02-25T12:58:40.177Z,17.60
2019-02-25T13:01:07.400Z,11.47
2019-02-25T13:03:34.689Z,4.60
2019-02-25T13:06:01.918Z,12.60
2019-02-25T13:08:29.329Z,4.33
2019-02-25T13:10:56.868Z,6.67
2019-02-25T13:13:24.087Z,7.30
2019-02-25T13:15:51.405Z,4.10
2019-02-25T13:18:18.680Z,7.10
2019-02-25T13:20:45.908Z,10.63
2019-02-25T13:23:13.413Z,6.13
2019-02-25T13:25:41.087Z,2.97
2019-02-25T13:28:08.335Z,6.03
2019-02-25T13:30:36.031Z,3.13
2019-02-25T13:33:03.688Z,5.70
2019-02-25T13:35:31.083Z,4.10
2019-02-25T13:37:58.464Z,4.63
2019-02-25T13:40:25.788Z,4.87
2019-02-25T13:42:53.313Z,6.47
2019-02-25T13:45:20.656Z,4.63
2019-02-25T13:47:48.308Z,4.00
2019-02-25T13:50:15.874Z,2.77
2019-02-25T13:52:48.331Z,5.47
2019-02-25T13:55:12.727Z,7.70
2019-02-25T13:57:40.393Z,8.03
2019-02-25T14:00:14.007Z,9.80
2019-02-25T14:02:41.467Z,3.37
2019-02-25T14:05:08.718Z,3.13
2019-02-25T14:07:36.056Z,6.33
2019-02-25T14:10:05.320Z,3.57
2019-02-25T14:12:32.636Z,2.70
2019-02-25T14:14:59.956Z,3.87
2019-02-25T14:17:27.272Z,3.07
2019-02-25T14:19:54.785Z,2.10
2019-02-25T14:22:22.103Z,1.87
2019-02-25T14:24:49.459Z,1.20
2019-02-25T14:27:16.792Z,3.43
2019-02-25T14:29:44.645Z,1.77
2019-02-25T14:32:15.329Z,3.00
2019-02-25T14:34:44.403Z,2.37
2019-02-25T14:37:13.468Z,4.20
2019-02-25T14:39:42.863Z,2.47
2019-02-25T14:42:11.955Z,3.43
2019-02-25T14:44:41.248Z,2.13
2019-02-25T14:47:19.727Z,1.70
2019-02-25T14:49:37.798Z,2.87
2019-02-25T14:52:06.513Z,2.80
2019-02-25T14:54:34.343Z,6.20
2019-02-25T14:57:01.636Z,1.30
2019-02-25T14:59:28.957Z,2.27
2019-02-25T15:01:56.958Z,2.30
2019-02-25T15:04:24.892Z,5.10
2019-02-25T15:06:52.725Z,6.53
2019-02-25T15:09:20.039Z,3.07
2019-02-25T15:11:47.359Z,2.03
2019-02-25T15:14:16.717Z,3.97
2019-02-25T15:16:44.144Z,4.63
2019-02-25T15:19:13.362Z,3.70
2019-02-25T15:21:43.024Z,3.70
2019-02-25T15:24:10.542Z,3.27
2019-02-25T15:26:42.808Z,2.40
2019-02-25T15:29:09.296Z,4.43
2019-02-25T15:31:36.680Z,5.37
2019-02-25T15:34:04.269Z,5.77
2019-02-25T15:36:31.710Z,3.77
2019-02-25T15:38:59.412Z,6.97
2019-02-25T15:41:26.752Z,3.87
2019-02-25T15:43:54.062Z,5.73
2019-02-25T15:46:23.821Z,5.67
2019-02-25T15:48:51.187Z,6.50
2019-02-25T15:51:18.731Z,4.87
2019-02-25T15:53:48.646Z,4.80
2019-02-25T15:56:15.688Z,4.47
2019-02-25T15:58:43.349Z,5.17
2019-02-25T16:01:12.711Z,5.43
2019-02-25T16:03:40.947Z,7.13
2019-02-25T16:06:10.608Z,6.07
2019-02-25T16:08:38.227Z,7.47
2019-02-25T16:11:05.761Z,6.63
2019-02-25T16:13:33.719Z,6.33
2019-02-25T16:16:01.220Z,8.37
2019-02-25T16:18:28.839Z,7.73
2019-02-25T16:20:57.559Z,7.10
2019-02-25T16:23:25.786Z,6.73
2019-02-25T16:25:54.836Z,7.03
2019-02-25T16:28:23.527Z,10.90
2019-02-25T16:30:51.353Z,6.67
2019-02-25T16:33:18.782Z,6.67
2019-02-25T16:35:46.451Z,8.87
2019-02-25T16:38:13.976Z,8.30
2019-02-25T16:40:41.879Z,9.47
2019-02-25T16:43:12.057Z,8.33
2019-02-25T16:45:40.195Z,6.73
2019-02-25T16:48:08.570Z,6.03
2019-02-25T16:50:36.756Z,7.27
2019-02-25T16:53:07.878Z,8.03
2019-02-25T16:55:34.184Z,6.27
2019-02-25T16:58:03.515Z,6.90
2019-02-25T17:00:32.468Z,8.40
2019-02-25T17:03:03.587Z,6.97
2019-02-25T17:05:29.579Z,7.87
2019-02-25T17:07:57.221Z,6.30
2019-02-25T17:10:26.620Z,7.47
2019-02-25T17:12:54.332Z,9.60
2019-02-25T17:15:21.784Z,7.50
2019-02-25T17:17:49.498Z,14.60
2019-02-25T17:20:16.860Z,7.60
2019-02-25T17:22:44.368Z,7.00
2019-02-25T17:25:12.135Z,11.20
2019-02-25T17:27:40.164Z,8.63
2019-02-25T17:30:12.684Z,9.97
2019-02-25T17:32:42.448Z,15.63
2019-02-25T17:35:10.015Z,15.10
2019-02-25T17:37:38.274Z,16.70
2019-02-25T17:40:08.628Z,15.80
2019-02-25T17:42:36.811Z,13.40
2019-02-25T17:45:07.240Z,14.03
2019-02-25T17:47:35.135Z,13.57
2019-02-25T17:50:06.345Z,15.40
2019-02-25T17:52:33.798Z,12.10
2019-02-25T17:55:02.318Z,12.77
2019-02-25T17:57:32.956Z,11.20
2019-02-25T18:00:00.229Z,14.57
2019-02-25T18:02:30.082Z,10.07
2019-02-25T18:04:58.715Z,12.90
2019-02-25T18:07:26.763Z,11.67
2019-02-25T18:09:54.656Z,11.40
2019-02-25T18:12:25.275Z,10.93
2019-02-25T18:14:51.124Z,11.10
2019-02-25T18:17:19.345Z,8.30
2019-02-25T18:19:47.793Z,7.90
2019-02-25T18:22:17.344Z,8.07
2019-02-25T18:24:44.792Z,9.10
2019-02-25T18:27:12.519Z,11.37
2019-02-25T18:29:41.420Z,11.03
2019-02-25T18:32:10.195Z,10.27
2019-02-25T18:34:38.739Z,16.33
2019-02-25T18:37:07.136Z,55.53
2019-02-25T18:39:35.604Z,53.97
2019-02-25T18:42:03.471Z,16.87
2019-02-25T18:44:30.711Z,10.43
2019-02-25T18:46:59.753Z,11.17
2019-02-25T18:49:28.233Z,7.30
2019-02-25T18:51:56.313Z,6.83
2019-02-25T18:54:25.327Z,6.93
2019-02-25T18:56:52.837Z,8.70
2019-02-25T18:59:20.500Z,6.60
2019-02-25T19:01:49.616Z,7.10
2019-02-25T19:04:17.648Z,9.30
2019-02-25T19:06:47.830Z,9.47
2019-02-25T19:09:21.241Z,8.23
2019-02-25T19:11:51.232Z,9.83
2019-02-25T19:14:21.796Z,12.97
2019-02-25T19:16:48.341Z,10.50
2019-02-25T19:19:17.102Z,8.73
2019-02-25T19:21:45.748Z,8.27
2019-02-25T19:24:14.320Z,9.10
2019-02-25T19:26:44.574Z,8.10
2019-02-25T19:29:12.540Z,10.27
2019-02-25T19:31:42.508Z,9.10
2019-02-25T19:34:10.616Z,11.77
2019-02-25T19:36:39.002Z,10.97
2019-02-25T19:39:11.942Z,13.53
2019-02-25T19:41:40.062Z,11.23
2019-02-25T19:44:08.050Z,11.17
2019-02-25T19:46:36.560Z,11.57
2019-02-25T19:49:04.224Z,11.63
2019-02-25T19:51:31.883Z,10.67
2019-02-25T19:53:59.833Z,12.00
2019-02-25T19:56:28.640Z,12.83
2019-02-25T19:58:56.587Z,9.53
2019-02-25T20:01:25.293Z,10.03
2019-02-25T20:03:52.852Z,9.47
2019-02-25T20:06:21.589Z,9.77
2019-02-25T20:08:50.986Z,11.30
2019-02-25T20:11:18.603Z,7.77
2019-02-25T20:13:46.259Z,7.83
2019-02-25T20:16:17.965Z,9.70
2019-02-25T20:18:43.374Z,11.37
2019-02-25T20:21:10.588Z,9.73
2019-02-25T20:23:38.136Z,8.47
2019-02-25T20:26:05.371Z,10.17
2019-02-25T20:28:33.359Z,9.57
2019-02-25T20:31:01.429Z,9.80
2019-02-25T20:33:31.819Z,7.93
2019-02-25T20:35:58.908Z,9.93
2019-02-25T20:38:29.442Z,11.47
2019-02-25T20:40:57.852Z,9.00
2019-02-25T20:43:25.945Z,8.70
2019-02-25T20:45:56.268Z,9.37
2019-02-25T20:48:23.768Z,9.90
2019-02-25T20:50:51.323Z,10.80
2019-02-25T20:53:18.904Z,10.17
2019-02-25T20:55:48.119Z,9.17
2019-02-25T20:58:16.876Z,8.30
2019-02-25T21:00:46.363Z,8.30
2019-02-25T21:03:16.140Z,12.10
2019-02-25T21:05:43.844Z,10.60
2019-02-25T21:08:12.479Z,9.30
2019-02-25T21:10:41.204Z,9.70
2019-02-25T21:13:08.771Z,10.27
2019-02-25T21:15:38.226Z,11.00
2019-02-25T21:18:07.711Z,14.37
2019-02-25T21:20:34.643Z,11.73
2019-02-25T21:23:05.271Z,12.47
2019-02-25T21:25:32.057Z,12.53
2019-02-25T21:28:02.346Z,10.83
2019-02-25T21:30:29.676Z,10.20
2019-02-25T21:32:58.835Z,11.70
2019-02-25T21:35:28.280Z,9.53
2019-02-25T21:37:55.543Z,9.23
2019-02-25T21:40:24.650Z,9.30
2019-02-25T21:42:53.895Z,9.73
2019-02-25T21:45:22.425Z,8.80
2019-02-25T21:47:52.297Z,10.67
2019-02-25T21:50:19.371Z,9.97
2019-02-25T21:52:47.971Z,9.03
2019-02-25T21:55:15.923Z,10.77
2019-02-25T21:57:43.193Z,8.10
2019-02-25T22:00:15.209Z,8.57
2019-02-25T22:02:44.060Z,10.60
2019-02-25T22:05:13.717Z,10.43
2019-02-25T22:07:40.966Z,9.20
2019-02-25T22:10:09.024Z,11.83
2019-02-25T22:12:37.722Z,10.47
2019-02-25T22:15:06.575Z,11.07
2019-02-25T22:17:33.792Z,12.53
2019-02-25T22:20:04.560Z,11.67
2019-02-25T22:22:31.637Z,12.00
2019-02-25T22:25:04.088Z,12.90
2019-02-25T22:27:29.136Z,8.67
2019-02-25T22:29:57.899Z,11.00
2019-02-25T22:32:26.089Z,11.13
2019-02-25T22:34:56.079Z,8.63
2019-02-25T22:37:24.988Z,10.90
2019-02-25T22:39:54.622Z,7.90
2019-02-25T22:42:22.394Z,8.97
2019-02-25T22:51:33.649Z,12.07
2019-02-25T22:54:03.664Z,8.50
2019-02-25T22:56:31.792Z,9.47
2019-02-25T22:59:00.482Z,10.27
2019-02-25T23:01:28.184Z,10.17
2019-02-25T23:03:57.296Z,11.83
2019-02-25T23:06:25.442Z,11.37
2019-02-25T23:08:53.307Z,11.60
2019-02-25T23:11:23.878Z,12.57
2019-02-25T23:13:52.524Z,11.37
2019-02-25T23:16:22.734Z,11.93
2019-02-25T23:18:49.837Z,12.97
2019-02-25T23:21:23.945Z,10.73
2019-02-25T23:23:46.507Z,10.40
2019-02-25T23:26:14.794Z,8.77
2019-02-25T23:28:43.702Z,9.60
2019-02-25T23:31:14.487Z,9.87
2019-02-25T23:33:42.284Z,10.83
2019-02-25T23:36:11.043Z,10.63
2019-02-25T23:38:39.950Z,9.60
2019-02-25T23:41:07.643Z,8.07
2019-02-25T23:43:38.474Z,10.80
2019-02-25T23:46:06.560Z,11.20
2019-02-25T23:48:36.407Z,10.97
2019-02-25T23:51:04.500Z,8.60
2019-02-25T23:53:32.910Z,11.77
2019-02-25T23:56:00.848Z,11.80
2019-02-25T23:58:28.823Z,10.33
